createdAt,value
2023-02-11T00:01:12.680Z,100735.20
2023-02-11T00:04:10.097Z,100730.60
2023-02-11T00:07:07.998Z,100726.60
2023-02-11T00:10:06.516Z,100727.00
2023-02-11T00:13:04.473Z,100725.40
2023-02-11T00:16:01.896Z,100725.00
2023-02-11T00:18:59.748Z,100729.60
2023-02-11T00:21:57.176Z,100728.40
2023-02-11T00:24:55.429Z,100726.00
2023-02-11T00:27:52.872Z,100730.60
2023-02-11T00:30:50.704Z,100729.60
2023-02-11T00:33:48.523Z,100726.00
2023-02-11T00:36:45.968Z,100723.80
2023-02-11T00:39:43.781Z,100718.00
2023-02-11T00:42:41.236Z,100716.20
2023-02-11T00:45:39.084Z,100711.80
2023-02-11T00:48:36.510Z,100711.20
2023-02-11T00:51:34.300Z,100711.20
2023-02-11T00:54:31.716Z,100719.40
2023-02-11T00:57:29.637Z,100717.60
2023-02-11T01:00:27.062Z,100719.80
2023-02-11T01:03:24.893Z,100716.60
2023-02-11T01:06:22.308Z,100712.80
2023-02-11T01:09:21.514Z,100714.60
2023-02-11T01:12:18.944Z,100714.00
2023-02-11T01:15:16.750Z,100706.00
2023-02-11T01:18:14.200Z,100704.80
2023-02-11T01:21:12.078Z,100699.00
2023-02-11T01:24:09.525Z,100694.20
2023-02-11T01:27:07.409Z,100705.20
2023-02-11T01:30:04.865Z,100703.40
2023-02-11T01:33:03.159Z,100697.40
2023-02-11T01:36:00.819Z,100691.80
2023-02-11T01:38:58.231Z,100681.60
2023-02-11T01:41:55.928Z,100684.80
2023-02-11T01:44:53.346Z,100684.60
2023-02-11T01:47:51.028Z,100685.20
2023-02-11T01:50:48.447Z,100689.60
2023-02-11T01:54:04.205Z,100676.80
2023-02-11T01:57:19.582Z,100670.40
2023-02-11T02:00:17.013Z,100663.80
2023-02-11T02:03:14.660Z,100667.60
2023-02-11T02:06:12.158Z,100663.80
2023-02-11T02:09:12.288Z,100663.80
2023-02-11T02:12:09.973Z,100664.40
2023-02-11T02:15:07.384Z,100659.00
2023-02-11T02:18:05.087Z,100657.80
2023-02-11T02:21:02.540Z,100655.80
2023-02-11T02:24:00.315Z,100644.20
2023-02-11T02:26:58.012Z,100644.20
2023-02-11T02:29:55.439Z,100642.60
2023-02-11T02:32:53.107Z,100636.80
2023-02-11T02:35:50.692Z,100632.20
2023-02-11T02:38:49.212Z,100624.40
2023-02-11T02:41:46.731Z,100619.20
2023-02-11T02:44:44.470Z,100612.40
2023-02-11T02:47:42.163Z,100606.80
2023-02-11T02:50:39.589Z,100603.40
2023-02-11T02:53:37.273Z,100598.20
2023-02-11T02:56:34.788Z,100596.60
2023-02-11T02:59:32.383Z,100593.80
2023-02-11T03:02:29.830Z,100597.80
2023-02-11T03:05:27.506Z,100601.20
2023-02-11T03:08:25.170Z,100593.80
2023-02-11T03:11:22.591Z,100592.40
2023-02-11T03:14:20.271Z,100587.00
2023-02-11T03:17:17.689Z,100579.00
2023-02-11T03:20:15.284Z,100574.80
2023-02-11T03:23:12.717Z,100570.40
2023-02-11T03:26:10.432Z,100569.20
2023-02-11T03:29:08.114Z,100570.00
2023-02-11T03:32:05.568Z,100568.60
2023-02-11T03:35:03.310Z,100567.40
2023-02-11T03:38:00.766Z,100557.40
2023-02-11T03:40:58.575Z,100557.80
2023-02-11T03:43:56.286Z,100553.40
2023-02-11T03:46:53.732Z,100546.80
2023-02-11T03:49:51.452Z,100538.80
2023-02-11T03:52:48.982Z,100528.60
2023-02-11T03:55:46.581Z,100524.00
2023-02-11T03:58:44.016Z,100517.80
2023-02-11T04:01:41.726Z,100512.80
2023-02-11T04:04:39.466Z,100510.20
2023-02-11T04:07:36.934Z,100507.20
2023-02-11T04:10:35.013Z,100505.00
2023-02-11T04:13:32.442Z,100506.20
2023-02-11T04:16:31.292Z,100502.80
2023-02-11T04:19:28.812Z,100506.40
2023-02-11T04:22:26.695Z,100515.40
2023-02-11T04:25:24.153Z,100524.60
2023-02-11T04:28:21.931Z,100518.80
2023-02-11T04:31:19.853Z,100521.80
2023-02-11T04:34:17.480Z,100523.20
2023-02-11T04:37:15.229Z,100521.60
2023-02-11T04:40:12.654Z,100515.40
2023-02-11T04:43:10.284Z,100513.20
2023-02-11T04:46:07.786Z,100508.60
2023-02-11T04:49:06.201Z,100502.60
2023-02-11T04:52:03.678Z,100508.20
2023-02-11T04:55:01.332Z,100512.80
2023-02-11T04:57:58.783Z,100515.80
2023-02-11T05:00:56.558Z,100512.60
2023-02-11T05:03:54.316Z,100511.60
2023-02-11T05:06:52.167Z,100499.60
2023-02-11T05:09:49.927Z,100494.20
2023-02-11T05:12:47.359Z,100494.00
2023-02-11T05:15:45.180Z,100505.00
2023-02-11T05:18:42.630Z,100505.40
2023-02-11T05:21:47.753Z,100508.80
2023-02-11T05:24:54.261Z,100502.00
2023-02-11T05:27:52.733Z,100504.60
2023-02-11T05:30:50.210Z,100506.20
2023-02-11T05:33:47.935Z,100499.40
2023-02-11T05:36:45.379Z,100504.00
2023-02-11T05:39:43.204Z,100506.20
2023-02-11T05:42:41.460Z,100502.20
2023-02-11T05:45:38.931Z,100506.60
2023-02-11T05:48:36.683Z,100503.80
2023-02-11T05:51:34.197Z,100497.40
2023-02-11T05:54:31.913Z,100482.60
2023-02-11T05:57:29.385Z,100482.40
2023-02-11T06:00:27.146Z,100485.00
2023-02-11T06:03:24.616Z,100483.20
2023-02-11T06:06:22.353Z,100481.40
2023-02-11T06:09:20.142Z,100477.60
2023-02-11T06:12:17.611Z,100467.00
2023-02-11T06:15:15.364Z,100464.60
2023-02-11T06:18:12.798Z,100461.40
2023-02-11T06:21:10.449Z,100452.20
2023-02-11T06:24:08.484Z,100447.80
2023-02-11T06:27:06.204Z,100438.20
2023-02-11T06:30:04.638Z,100443.00
2023-02-11T06:33:02.112Z,100443.80
2023-02-11T06:35:59.764Z,100436.80
2023-02-11T06:38:57.180Z,100437.20
2023-02-11T06:41:54.956Z,100432.40
2023-02-11T06:44:52.404Z,100418.00
2023-02-11T06:47:50.179Z,100410.60
2023-02-11T06:50:47.590Z,100403.00
2023-02-11T06:53:45.398Z,100408.20
2023-02-11T06:56:43.176Z,100405.80
2023-02-11T06:59:40.613Z,100401.40
2023-02-11T07:02:38.333Z,100391.60
2023-02-11T07:05:37.183Z,100398.20
2023-02-11T07:08:34.794Z,100399.20
2023-02-11T07:11:32.259Z,100396.60
2023-02-11T07:14:29.963Z,100389.40
2023-02-11T07:17:27.407Z,100378.40
2023-02-11T07:20:25.205Z,100372.60
2023-02-11T07:23:22.686Z,100368.00
2023-02-11T07:26:20.403Z,100363.60
2023-02-11T07:29:18.203Z,100364.40
2023-02-11T07:32:15.707Z,100366.00
2023-02-11T07:35:13.439Z,100365.40
2023-02-11T07:38:10.897Z,100378.20
2023-02-11T07:41:08.645Z,100372.20
2023-02-11T07:44:06.435Z,100372.20
2023-02-11T07:47:03.992Z,100372.80
2023-02-11T07:50:01.666Z,100375.80
2023-02-11T07:52:59.134Z,100369.00
2023-02-11T07:55:56.762Z,100366.40
2023-02-11T07:58:54.296Z,100378.60
2023-02-11T08:01:52.150Z,100389.00
2023-02-11T08:04:50.190Z,100392.40
2023-02-11T08:07:47.905Z,100421.80
2023-02-11T08:10:45.348Z,100433.20
2023-02-11T08:13:43.210Z,100438.00
2023-02-11T08:16:40.906Z,100440.00
2023-02-11T08:19:38.403Z,100433.20
2023-02-11T08:22:36.180Z,100426.40
2023-02-11T08:25:33.682Z,100425.40
2023-02-11T08:28:31.498Z,100417.00
2023-02-11T08:31:29.164Z,100416.20
2023-02-11T08:34:27.019Z,100417.00
2023-02-11T08:37:24.466Z,100419.40
2023-02-11T08:40:22.098Z,100414.60
2023-02-11T08:43:19.566Z,100404.40
2023-02-11T08:46:17.481Z,100408.60
2023-02-11T08:49:15.378Z,100405.20
2023-02-11T08:52:12.957Z,100405.60
2023-02-11T08:55:10.799Z,100416.00
2023-02-11T08:58:08.276Z,100417.80
2023-02-11T09:01:05.986Z,100408.00
2023-02-11T09:04:03.518Z,100398.60
2023-02-11T09:07:01.332Z,100413.80
2023-02-11T09:09:58.835Z,100419.40
2023-02-11T09:12:56.679Z,100416.40
2023-02-11T09:15:54.136Z,100412.60
2023-02-11T09:18:51.878Z,100407.60
2023-02-11T09:21:49.906Z,100413.60
2023-02-11T09:24:47.356Z,100401.80
2023-02-11T09:27:45.814Z,100395.20
2023-02-11T09:30:43.326Z,100398.80
2023-02-11T09:33:42.346Z,100399.40
2023-02-11T09:36:40.718Z,100387.80
2023-02-11T09:39:38.195Z,100398.00
2023-02-11T09:42:35.917Z,100394.00
2023-02-11T09:45:33.379Z,100398.00
2023-02-11T09:48:31.230Z,100399.40
2023-02-11T09:51:28.679Z,100392.20
2023-02-11T09:54:26.737Z,100386.80
2023-02-11T09:57:29.041Z,100376.60
2023-02-11T10:00:26.956Z,100360.20
2023-02-11T10:03:24.650Z,100366.80
2023-02-11T10:06:22.063Z,100361.60
2023-02-11T10:09:19.773Z,100369.40
2023-02-11T10:12:17.219Z,100361.00
2023-02-11T10:15:15.427Z,100359.80
2023-02-11T10:18:12.890Z,100367.00
2023-02-11T10:21:11.891Z,100371.80
2023-02-11T10:24:09.333Z,100368.40
2023-02-11T10:27:06.933Z,100361.40
2023-02-11T10:30:07.832Z,100344.20
2023-02-11T10:33:05.259Z,100346.80
2023-02-11T10:36:03.033Z,100347.00
2023-02-11T10:39:00.497Z,100336.80
2023-02-11T10:41:58.284Z,100315.60
2023-02-11T10:44:55.734Z,100308.80
2023-02-11T10:47:53.504Z,100305.60
2023-02-11T10:50:51.572Z,100303.00
2023-02-11T10:53:49.277Z,100306.60
2023-02-11T10:56:47.182Z,100305.40
2023-02-11T10:59:44.647Z,100294.20
2023-02-11T11:02:44.511Z,100300.20
2023-02-11T11:05:41.990Z,100294.40
2023-02-11T11:08:39.717Z,100292.60
2023-02-11T11:11:37.504Z,100290.80
2023-02-11T11:14:34.941Z,100289.00
2023-02-11T11:17:32.824Z,100287.00
2023-02-11T11:20:32.249Z,100292.40
2023-02-11T11:23:29.973Z,100278.80
2023-02-11T11:26:27.651Z,100270.00
2023-02-11T11:29:27.022Z,100263.00
2023-02-11T11:32:24.813Z,100263.80
2023-02-11T11:35:22.561Z,100250.80
2023-02-11T11:38:20.603Z,100245.60
2023-02-11T11:41:18.054Z,100231.60
2023-02-11T11:44:15.771Z,100235.00
2023-02-11T11:47:13.566Z,100231.00
2023-02-11T11:50:11.010Z,100222.80
2023-02-11T11:53:09.091Z,100222.60
2023-02-11T11:56:07.368Z,100223.40
2023-02-11T11:59:05.088Z,100214.00
2023-02-11T12:02:02.848Z,100207.80
2023-02-11T12:05:00.824Z,100203.60
2023-02-11T12:07:58.656Z,100200.80
2023-02-11T12:10:56.297Z,100194.80
2023-02-11T12:13:54.104Z,100186.80
2023-02-11T12:16:51.582Z,100190.80
2023-02-11T12:19:49.421Z,100188.80
2023-02-11T12:22:47.126Z,100189.80
2023-02-11T12:25:45.090Z,100191.20
2023-02-11T12:28:43.051Z,100189.20
2023-02-11T12:31:41.127Z,100192.60
2023-02-11T12:34:38.647Z,100191.40
2023-02-11T12:37:36.717Z,100197.80
2023-02-11T12:40:34.480Z,100190.00
2023-02-11T12:43:32.292Z,100175.60
2023-02-11T12:46:30.393Z,100182.60
2023-02-11T12:49:27.836Z,100184.00
2023-02-11T12:52:25.542Z,100184.40
2023-02-11T12:55:23.246Z,100167.80
2023-02-11T12:58:25.405Z,100154.20
2023-02-11T13:01:27.446Z,100163.80
2023-02-11T13:04:24.911Z,100181.40
2023-02-11T13:07:22.671Z,100176.20
2023-02-11T13:10:20.534Z,100176.60
2023-02-11T13:13:18.564Z,100189.20
2023-02-11T13:16:16.826Z,100186.60
2023-02-11T13:19:14.676Z,100191.80
2023-02-11T13:22:12.440Z,100201.80
2023-02-11T13:25:12.755Z,100209.20
2023-02-11T13:28:11.138Z,100214.20
2023-02-11T13:31:10.212Z,100226.40
2023-02-11T13:34:08.073Z,100224.40
2023-02-11T13:37:06.311Z,100220.00
2023-02-11T13:40:03.763Z,100217.40
2023-02-11T13:43:01.933Z,100216.00
2023-02-11T13:45:59.806Z,100213.60
2023-02-11T13:48:58.281Z,100208.80
2023-02-11T13:51:56.302Z,100208.60
2023-02-11T13:54:54.031Z,100201.80
2023-02-11T13:57:51.788Z,100205.20
2023-02-11T14:00:49.744Z,100203.80
2023-02-11T14:04:05.493Z,100197.80
2023-02-11T14:07:21.051Z,100193.60
2023-02-11T14:10:19.249Z,100208.20
2023-02-11T14:13:16.760Z,100199.20
2023-02-11T14:16:17.092Z,100195.60
2023-02-11T14:19:18.270Z,100199.80
2023-02-11T14:22:17.039Z,100210.00
2023-02-11T14:25:16.340Z,100208.20
2023-02-11T14:28:14.477Z,100213.60
2023-02-11T14:31:12.348Z,100206.20
2023-02-11T14:34:09.897Z,100204.20
2023-02-11T14:37:07.751Z,100206.00
2023-02-11T14:40:06.904Z,100191.40
2023-02-11T14:43:05.091Z,100185.80
2023-02-11T14:46:04.758Z,100194.00
2023-02-11T14:49:02.352Z,100191.20
2023-02-11T14:52:01.224Z,100197.60
2023-02-11T14:54:59.669Z,100199.80
2023-02-11T14:58:00.138Z,100204.60
2023-02-11T15:00:58.972Z,100203.60
2023-02-11T15:03:59.279Z,100193.60
2023-02-11T15:06:58.226Z,100200.20
2023-02-11T15:09:55.845Z,100186.80
2023-02-11T15:12:53.920Z,100183.20
2023-02-11T15:15:51.689Z,100173.60
2023-02-11T15:18:49.146Z,100180.80
2023-02-11T15:21:47.440Z,100183.60
2023-02-11T15:24:45.096Z,100187.80
2023-02-11T15:27:45.414Z,100187.80
2023-02-11T15:30:43.520Z,100189.00
2023-02-11T15:33:42.533Z,100197.60
2023-02-11T15:36:40.876Z,100196.60
2023-02-11T15:39:41.241Z,100205.40
2023-02-11T15:42:52.084Z,100198.80
2023-02-11T15:45:51.383Z,100202.20
2023-02-11T15:48:50.602Z,100206.40
2023-02-11T15:51:48.759Z,100199.20
2023-02-11T15:54:50.800Z,100190.80
2023-02-11T15:57:49.552Z,100192.60
2023-02-11T16:00:48.314Z,100186.60
2023-02-11T16:03:47.687Z,100174.20
2023-02-11T16:06:48.446Z,100163.40
2023-02-11T16:09:46.724Z,100165.80
2023-02-11T16:12:45.320Z,100158.80
2023-02-11T16:15:43.831Z,100163.80
2023-02-11T16:18:45.253Z,100160.40
2023-02-11T16:21:46.217Z,100174.80
2023-02-11T16:24:44.984Z,100182.40
2023-02-11T16:27:43.975Z,100187.00
2023-02-11T16:30:44.573Z,100186.40
2023-02-11T16:33:43.156Z,100190.20
2023-02-11T16:36:43.048Z,100193.80
2023-02-11T16:39:41.256Z,100206.40
2023-02-11T16:42:39.880Z,100215.00
2023-02-11T16:45:38.729Z,100212.20
2023-02-11T16:48:37.254Z,100211.60
2023-02-11T16:51:36.046Z,100215.00
2023-02-11T16:54:34.505Z,100214.40
2023-02-11T16:57:33.938Z,100218.60
2023-02-11T17:00:34.784Z,100218.20
2023-02-11T17:03:38.049Z,100206.40
2023-02-11T17:06:39.618Z,100220.80
2023-02-11T17:09:39.419Z,100220.40
2023-02-11T17:12:38.637Z,100229.80
2023-02-11T17:15:37.938Z,100234.00
2023-02-11T17:18:38.166Z,100228.20
2023-02-11T17:21:36.513Z,100231.20
2023-02-11T17:24:34.721Z,100242.20
2023-02-11T17:27:32.941Z,100238.80
2023-02-11T17:30:31.663Z,100243.20
2023-02-11T17:33:31.003Z,100247.60
2023-02-11T17:36:31.448Z,100247.60
2023-02-11T17:39:30.849Z,100252.80
2023-02-11T17:42:32.435Z,100254.20
2023-02-11T17:45:32.603Z,100250.40
2023-02-11T17:48:33.292Z,100251.20
2023-02-11T17:51:32.455Z,100250.00
2023-02-11T17:54:30.502Z,100252.00
2023-02-11T17:57:30.271Z,100251.60
2023-02-11T18:00:31.142Z,100239.80
2023-02-11T18:03:32.520Z,100246.40
2023-02-11T18:06:31.125Z,100251.40
2023-02-11T18:09:29.580Z,100257.40
2023-02-11T18:12:28.284Z,100258.00
2023-02-11T18:15:26.773Z,100259.80
2023-02-11T18:18:25.977Z,100254.20
2023-02-11T18:21:24.541Z,100249.20
2023-02-11T18:24:23.443Z,100251.80
2023-02-11T18:27:21.871Z,100253.80
2023-02-11T18:30:20.844Z,100262.00
2023-02-11T18:33:19.544Z,100262.60
2023-02-11T18:36:20.961Z,100263.80
2023-02-11T18:39:20.800Z,100267.40
2023-02-11T18:42:20.293Z,100264.00
2023-02-11T18:45:19.493Z,100265.40
2023-02-11T18:48:18.120Z,100269.20
2023-02-11T18:51:20.454Z,100279.60
2023-02-11T18:54:20.093Z,100278.40
2023-02-11T18:57:19.370Z,100278.40
2023-02-11T19:00:17.549Z,100285.00
2023-02-11T19:03:17.780Z,100291.20
2023-02-11T19:06:18.782Z,100295.20
2023-02-11T19:09:18.765Z,100292.00
2023-02-11T19:12:17.938Z,100282.20
2023-02-11T19:15:17.027Z,100280.20
2023-02-11T19:18:15.742Z,100278.60
2023-02-11T19:21:15.444Z,100287.80
2023-02-11T19:24:14.352Z,100294.00
2023-02-11T19:27:13.810Z,100301.20
2023-02-11T19:30:13.447Z,100289.00
2023-02-11T19:33:13.060Z,100290.40
2023-02-11T19:36:16.804Z,100290.40
2023-02-11T19:39:15.340Z,100291.60
2023-02-11T19:42:17.821Z,100292.80
2023-02-11T19:45:17.815Z,100294.40
2023-02-11T19:48:16.727Z,100290.80
2023-02-11T19:51:17.009Z,100286.80
2023-02-11T19:54:16.468Z,100290.80
2023-02-11T19:57:15.359Z,100292.40
2023-02-11T20:00:13.834Z,100292.00
2023-02-11T20:03:12.481Z,100289.60
2023-02-11T20:06:13.783Z,100293.80
2023-02-11T20:09:11.549Z,100291.20
2023-02-11T20:12:12.594Z,100290.80
2023-02-11T20:15:13.900Z,100294.00
2023-02-11T20:18:12.844Z,100292.40
2023-02-11T20:21:11.627Z,100289.60
2023-02-11T20:24:10.844Z,100293.20
2023-02-11T20:27:11.162Z,100304.00
2023-02-11T20:30:09.737Z,100300.20
2023-02-11T20:33:08.338Z,100305.00
2023-02-11T20:36:06.894Z,100297.80
2023-02-11T20:39:06.044Z,100317.20
2023-02-11T20:42:06.063Z,100310.00
2023-02-11T20:45:04.496Z,100311.20
2023-02-11T20:48:03.285Z,100316.60
2023-02-11T20:51:01.757Z,100316.80
2023-02-11T20:54:01.539Z,100310.20
2023-02-11T20:57:06.096Z,100303.20
2023-02-11T21:00:04.973Z,100293.20
2023-02-11T21:03:03.301Z,100292.00
2023-02-11T21:06:01.881Z,100284.20
2023-02-11T21:09:01.096Z,100293.60
2023-02-11T21:12:00.574Z,100286.00
2023-02-11T21:14:59.178Z,100285.00
2023-02-11T21:17:58.585Z,100290.60
2023-02-11T21:20:57.067Z,100288.80
2023-02-11T21:23:56.836Z,100280.80
2023-02-11T21:26:56.122Z,100284.80
2023-02-11T21:29:56.692Z,100281.40
2023-02-11T21:32:55.349Z,100269.00
2023-02-11T21:35:53.705Z,100283.00
2023-02-11T21:38:53.099Z,100278.00
2023-02-11T21:41:52.597Z,100284.00
2023-02-11T21:44:50.420Z,100283.80
2023-02-11T21:47:48.714Z,100298.60
2023-02-11T21:50:47.345Z,100300.20
2023-02-11T21:53:45.322Z,100288.60
2023-02-11T21:56:43.440Z,100290.20
2023-02-11T21:59:42.482Z,100287.20
2023-02-11T22:02:40.638Z,100281.60
2023-02-11T22:05:38.812Z,100275.80
2023-02-11T22:08:37.096Z,100280.00
2023-02-11T22:11:35.326Z,100287.80
2023-02-11T22:14:33.153Z,100294.80
2023-02-11T22:17:30.627Z,100292.60
2023-02-11T22:20:28.529Z,100303.80
2023-02-11T22:23:25.969Z,100310.00
2023-02-11T22:26:23.820Z,100313.80
2023-02-11T22:29:21.910Z,100314.20
2023-02-11T22:32:19.857Z,100318.80
2023-02-11T22:35:17.276Z,100314.80
2023-02-11T22:38:15.254Z,100316.00
2023-02-11T22:41:13.154Z,100328.00
2023-02-11T22:44:10.583Z,100330.00
2023-02-11T22:47:08.490Z,100332.60
2023-02-11T22:50:05.910Z,100337.40
2023-02-11T22:53:03.812Z,100335.40
2023-02-11T22:56:01.374Z,100342.40
2023-02-11T22:58:59.232Z,100341.00
2023-02-11T23:01:56.873Z,100343.40
2023-02-11T23:04:55.082Z,100347.20
2023-02-11T23:07:52.529Z,100349.40
2023-02-11T23:10:50.813Z,100346.40
2023-02-11T23:13:48.323Z,100356.80
2023-02-11T23:16:46.158Z,100356.80
2023-02-11T23:19:43.588Z,100352.60
2023-02-11T23:22:41.415Z,100357.80
2023-02-11T23:25:38.849Z,100356.00
2023-02-11T23:28:36.756Z,100352.60
2023-02-11T23:31:35.051Z,100349.80
2023-02-11T23:34:33.043Z,100353.80
2023-02-11T23:37:31.324Z,100352.40
2023-02-11T23:40:28.755Z,100354.80
2023-02-11T23:43:26.670Z,100352.40
2023-02-11T23:46:24.173Z,100353.40
2023-02-11T23:49:22.180Z,100350.40
2023-02-11T23:52:19.615Z,100362.00
2023-02-11T23:55:17.513Z,100360.80
2023-02-11T23:58:15.372Z,100353.80
